^^
Saratoga-Weather Station Historical Data
Daily Summary for January 17, 2020 Units:  Both    English   Metric
Daily Weekly Monthly Yearly Custom
  High: Low: Average:
Temperature: 50.4 °F /  10.2 °C 41.2 °F /  5.1 °C 46 °F /  7.8 °C
Dew Point: 47.5 °F /  8.6 °C 40.5 °F /  4.7 °C 44.4 °F /  6.9 °C
Humidity: 98% 86% 94%
Wind Speed: 8.1mph /  13km/h - 0.7mph /  1.1km/h
Wind Gust: 11mph /  17.7km/h - -
Wind- - SW
Pressure: 30.2 in /  1024.0 hPa 30 in /  1015.6 hPa -
Precipitation: 0.02 in /  0.5 mm    
Historical Graphs
 
 
Tabular Data for January 17, 2020
Time Temperature Dew Point Pressure Wind Wind Speed Wind Gust Humidity Rainfall Rate (Hourly) solar
00:04 42.1 °F /  5.6 °C 41.4 °F /  5.2 °C 30in /  1015.6hPa Calm     97% 0in /  0.0mm 0 W/m2
00:09 42.1 °F /  5.6 °C 41.4 °F /  5.2 °C 30in /  1015.6hPa Calm     97% 0in /  0.0mm 0 W/m2
00:14 41.9 °F /  5.5 °C 41.2 °F /  5.1 °C 30in /  1015.6hPa Calm     97% 0in /  0.0mm 0 W/m2
00:19 41.7 °F /  5.4 °C 41 °F /  5 °C 30in /  1015.6hPa Calm     97% 0in /  0.0mm 0 W/m2
00:24 41.5 °F /  5.3 °C 40.8 °F /  4.9 °C 30in /  1015.6hPa Calm     97% 0in /  0.0mm 0 W/m2
00:29 41.5 °F /  5.3 °C 40.8 °F /  4.9 °C 30in /  1015.6hPa Calm     97% 0in /  0.0mm 0 W/m2
00:34 41.5 °F /  5.3 °C 40.8 °F /  4.9 °C 30in /  1015.6hPa Calm     97% 0in /  0.0mm 0 W/m2
00:52 41.5 °F /  5.3 °C 40.8 °F /  4.9 °C 30in /  1015.6hPa Calm     97% 0in /  0.0mm 0 W/m2
00:57 41.5 °F /  5.3 °C 40.8 °F /  4.9 °C 30in /  1015.6hPa Calm     97% 0in /  0.0mm 0 W/m2
01:02 41.5 °F /  5.3 °C 40.8 °F /  4.9 °C 30in /  1015.9hPa Calm     97% 0in /  0.0mm 0 W/m2
01:07 41.5 °F /  5.3 °C 40.8 °F /  4.9 °C 30in /  1015.9hPa Calm     97% 0in /  0.0mm 0 W/m2
01:12 41.5 °F /  5.3 °C 40.8 °F /  4.9 °C 30in /  1015.6hPa Calm     97% 0in /  0.0mm 0 W/m2
01:17 41.5 °F /  5.3 °C 40.8 °F /  4.9 °C 30in /  1015.6hPa Calm     97% 0in /  0.0mm 0 W/m2
01:22 41.5 °F /  5.3 °C 40.8 °F /  4.9 °C 30in /  1015.6hPa Calm     97% 0in /  0.0mm 0 W/m2
01:27 41.5 °F /  5.3 °C 41 °F /  5 °C 30in /  1015.6hPa Calm     98% 0in /  0.0mm 0 W/m2
01:32 41.5 °F /  5.3 °C 41 °F /  5 °C 30in /  1015.6hPa Calm     98% 0in /  0.0mm 0 W/m2
01:37 41.5 °F /  5.3 °C 41 °F /  5 °C 30in /  1015.9hPa Calm     98% 0in /  0.0mm 0 W/m2
01:42 41.7 °F /  5.4 °C 41.2 °F /  5.1 °C 30in /  1015.9hPa Calm     98% 0in /  0.0mm 0 W/m2
01:47 41.7 °F /  5.4 °C 41 °F /  5 °C 30in /  1015.9hPa Calm     97% 0in /  0.0mm 0 W/m2
01:52 41.7 °F /  5.4 °C 41 °F /  5 °C 30in /  1015.9hPa Calm     97% 0in /  0.0mm 0 W/m2
01:57 41.9 °F /  5.5 °C 41.4 °F /  5.2 °C 30in /  1015.9hPa Calm     98% 0in /  0.0mm 0 W/m2
02:02 41.9 °F /  5.5 °C 41.4 °F /  5.2 °C 30in /  1015.9hPa Calm     98% 0in /  0.0mm 0 W/m2
02:07 41.9 °F /  5.5 °C 41.2 °F /  5.1 °C 30in /  1015.9hPa Calm     97% 0in /  0.0mm 0 W/m2
02:12 41.7 °F /  5.4 °C 41 °F /  5 °C 30in /  1015.9hPa Calm     97% 0in /  0.0mm 0 W/m2
02:17 41.7 °F /  5.4 °C 41.2 °F /  5.1 °C 30in /  1015.9hPa Calm     98% 0in /  0.0mm 0 W/m2
02:22 41.5 °F /  5.3 °C 41 °F /  5 °C 30in /  1015.9hPa Calm     98% 0in /  0.0mm 0 W/m2
02:27 41.5 °F /  5.3 °C 41 °F /  5 °C 30in /  1016.3hPa Calm     98% 0in /  0.0mm 0 W/m2
02:32 41.4 °F /  5.2 °C 40.6 °F /  4.8 °C 30in /  1016.3hPa Calm     97% 0in /  0.0mm 0 W/m2
02:37 41.4 °F /  5.2 °C 40.6 °F /  4.8 °C 30in /  1016.3hPa Calm     97% 0in /  0.0mm 0 W/m2
02:42 41.2 °F /  5.1 °C 40.5 °F /  4.7 °C 30in /  1016.3hPa Calm     97% 0in /  0.0mm 0 W/m2
02:47 41.2 °F /  5.1 °C 40.5 °F /  4.7 °C 30in /  1016.3hPa Calm     97% 0in /  0.0mm 0 W/m2
02:52 41.2 °F /  5.1 °C 40.5 °F /  4.7 °C 30in /  1016.3hPa Calm     97% 0in /  0.0mm 0 W/m2
02:57 41.2 °F /  5.1 °C 40.6 °F /  4.8 °C 30in /  1016.3hPa Calm     98% 0in /  0.0mm 0 W/m2
03:02 41.2 °F /  5.1 °C 40.6 °F /  4.8 °C 30in /  1016.3hPa Calm     98% 0in /  0.0mm 0 W/m2
03:07 41.2 °F /  5.1 °C 40.5 °F /  4.7 °C 30in /  1016.3hPa Calm     97% 0in /  0.0mm 0 W/m2
03:12 41.4 °F /  5.2 °C 40.6 °F /  4.8 °C 30in /  1016.3hPa Calm     97% 0in /  0.0mm 0 W/m2
03:17 41.4 °F /  5.2 °C 40.6 °F /  4.8 °C 30in /  1016.3hPa Calm     97% 0in /  0.0mm 0 W/m2
03:22 41.4 °F /  5.2 °C 40.8 °F /  4.9 °C 30in /  1016.3hPa Calm     98% 0in /  0.0mm 0 W/m2
03:27 41.4 °F /  5.2 °C 40.8 °F /  4.9 °C 30in /  1016.3hPa Calm     98% 0in /  0.0mm 0 W/m2
03:32 41.2 °F /  5.1 °C 40.6 °F /  4.8 °C 30in /  1016.3hPa Calm     98% 0in /  0.0mm 0 W/m2
03:37 41.2 °F /  5.1 °C 40.6 °F /  4.8 °C 30in /  1016.3hPa Calm     98% 0in /  0.0mm 0 W/m2
03:42 41.2 °F /  5.1 °C 40.6 °F /  4.8 °C 30in /  1015.9hPa Calm     98% 0in /  0.0mm 0 W/m2
03:47 41.2 °F /  5.1 °C 40.6 °F /  4.8 °C 30in /  1015.9hPa Calm     98% 0in /  0.0mm 0 W/m2
03:52 41.2 °F /  5.1 °C 40.6 °F /  4.8 °C 30in /  1015.9hPa Calm     98% 0in /  0.0mm 0 W/m2
03:57 41.4 °F /  5.2 °C 40.8 °F /  4.9 °C 30in /  1016.3hPa Calm     98% 0in /  0.0mm 0 W/m2
04:02 41.4 °F /  5.2 °C 40.8 °F /  4.9 °C 30in /  1016.3hPa Calm     98% 0in /  0.0mm 0 W/m2
04:07 41.5 °F /  5.3 °C 41 °F /  5 °C 30in /  1016.3hPa Calm     98% 0in /  0.0mm 0 W/m2
04:12 41.5 °F /  5.3 °C 41 °F /  5 °C 30in /  1016.3hPa Calm     98% 0in /  0.0mm 0 W/m2
04:17 41.5 °F /  5.3 °C 41 °F /  5 °C 30in /  1016.3hPa Calm     98% 0in /  0.0mm 0 W/m2
04:22 41.5 °F /  5.3 °C 41 °F /  5 °C 30in /  1016.3hPa Calm     98% 0in /  0.0mm 0 W/m2
04:27 41.7 °F /  5.4 °C 41.2 °F /  5.1 °C 30in /  1016.3hPa Calm     98% 0in /  0.0mm 0 W/m2
04:32 41.7 °F /  5.4 °C 41.2 °F /  5.1 °C 30in /  1016.3hPa Calm     98% 0in /  0.0mm 0 W/m2
04:37 41.7 °F /  5.4 °C 41.2 °F /  5.1 °C 30in /  1016.3hPa Calm     98% 0in /  0.0mm 0 W/m2
04:42 41.9 °F /  5.5 °C 41.4 °F /  5.2 °C 30in /  1016.3hPa Calm     98% 0in /  0.0mm 0 W/m2
04:47 41.9 °F /  5.5 °C 41.4 °F /  5.2 °C 30in /  1016.3hPa Calm     98% 0in /  0.0mm 0 W/m2
04:52 42.1 °F /  5.6 °C 41.5 °F /  5.3 °C 30in /  1016.3hPa Calm     98% 0in /  0.0mm 0 W/m2
05:11 42.3 °F /  5.7 °C 41.7 °F /  5.4 °C 30in /  1016.3hPa Calm     98% 0in /  0.0mm 0 W/m2
05:16 42.3 °F /  5.7 °C 41.7 °F /  5.4 °C 30in /  1016.3hPa Calm     98% 0in /  0.0mm 0 W/m2
05:21 42.3 °F /  5.7 °C 41.7 °F /  5.4 °C 30in /  1016.3hPa Calm     98% 0in /  0.0mm 0 W/m2
05:26 42.3 °F /  5.7 °C 41.7 °F /  5.4 °C 30in /  1016.3hPa Calm     98% 0in /  0.0mm 0 W/m2
05:31 42.3 °F /  5.7 °C 41.7 °F /  5.4 °C 30in /  1016.3hPa ENE 2mph /  3.2km/h 2mph /  3.2km/h 98% 0in /  0.0mm 0 W/m2
05:36 42.3 °F /  5.7 °C 41.7 °F /  5.4 °C 30in /  1016.3hPa ESE 0.9mph /  1.4km/h 3mph /  4.8km/h 98% 0in /  0.0mm 0 W/m2
05:41 42.4 °F /  5.8 °C 41.9 °F /  5.5 °C 30in /  1016.3hPa SE 2mph /  3.2km/h 3mph /  4.8km/h 98% 0in /  0.0mm 0 W/m2
05:46 42.8 °F /  6 °C 42.3 °F /  5.7 °C 30in /  1016.6hPa SE 0.9mph /  1.4km/h 2mph /  3.2km/h 98% 0in /  0.0mm 0 W/m2
05:51 43 °F /  6.1 °C 42.4 °F /  5.8 °C 30in /  1016.6hPa ESE 0.9mph /  1.4km/h 3mph /  4.8km/h 98% 0in /  0.0mm 0 W/m2
05:56 43.2 °F /  6.2 °C 42.6 °F /  5.9 °C 30in /  1016.6hPa ESE 2mph /  3.2km/h 2mph /  3.2km/h 98% 0in /  0.0mm 0 W/m2
06:01 43.2 °F /  6.2 °C 42.6 °F /  5.9 °C 30in /  1016.6hPa Calm     98% 0in /  0.0mm 0 W/m2
06:06 43.2 °F /  6.2 °C 42.6 °F /  5.9 °C 30in /  1016.9hPa Calm   2mph /  3.2km/h 98% 0in /  0.0mm 0 W/m2
06:11 43 °F /  6.1 °C 42.4 °F /  5.8 °C 30in /  1016.9hPa Calm   2mph /  3.2km/h 98% 0in /  0.0mm 0 W/m2
06:16 43 °F /  6.1 °C 42.4 °F /  5.8 °C 30in /  1016.9hPa Calm     98% 0in /  0.0mm 0 W/m2
06:21 43 °F /  6.1 °C 42.4 °F /  5.8 °C 30in /  1016.9hPa Calm   1mph /  1.6km/h 98% 0in /  0.0mm 0 W/m2
06:26 43.5 °F /  6.4 °C 43 °F /  6.1 °C 30in /  1016.9hPa Calm   2mph /  3.2km/h 98% 0in /  0.0mm 0 W/m2
06:31 43.9 °F /  6.6 °C 43.3 °F /  6.3 °C 30in /  1016.9hPa NW 2mph /  3.2km/h 3mph /  4.8km/h 98% 0in /  0.0mm 0 W/m2
06:36 44.4 °F /  6.9 °C 43.9 °F /  6.6 °C 30in /  1017.3hPa North 0.9mph /  1.4km/h 2mph /  3.2km/h 98% 0in /  0.0mm 0 W/m2
06:41 45 °F /  7.2 °C 44.4 °F /  6.9 °C 30in /  1017.3hPa SE 0.9mph /  1.4km/h 4mph /  6.4km/h 98% 0in /  0.0mm 0 W/m2
06:46 45.1 °F /  7.3 °C 44.6 °F /  7 °C 30in /  1017.3hPa NNW 0.9mph /  1.4km/h 3mph /  4.8km/h 98% 0in /  0.0mm 0 W/m2
06:51 45.7 °F /  7.6 °C 45.1 °F /  7.3 °C 30in /  1017.3hPa Calm   2mph /  3.2km/h 98% 0in /  0.0mm 0 W/m2
06:56 45.7 °F /  7.6 °C 45.1 °F /  7.3 °C 30.1in /  1017.6hPa East 6mph /  9.7km/h 6mph /  9.7km/h 98% 0in /  0.0mm 0 W/m2
07:01 46 °F /  7.8 °C 45.5 °F /  7.5 °C 30.1in /  1017.6hPa Calm   6mph /  9.7km/h 98% 0in /  0.0mm 0 W/m2
07:06 46.4 °F /  8 °C 45.9 °F /  7.7 °C 30.1in /  1017.6hPa Calm   4mph /  6.4km/h 98% 0in /  0.0mm 0 W/m2
07:11 46.8 °F /  8.2 °C 46.2 °F /  7.9 °C 30.1in /  1017.6hPa Calm   2mph /  3.2km/h 98% 0in /  0.0mm 0 W/m2
07:16 46.8 °F /  8.2 °C 46.2 °F /  7.9 °C 30.1in /  1018.0hPa ESE 2mph /  3.2km/h 6mph /  9.7km/h 98% 0in /  0.0mm 0 W/m2
07:21 46.9 °F /  8.3 °C 46.4 °F /  8 °C 30.1in /  1018.0hPa WNW 0.9mph /  1.4km/h 5mph /  8km/h 98% 0in /  0.0mm 0 W/m2
07:26 46.9 °F /  8.3 °C 46.4 °F /  8 °C 30.1in /  1018.0hPa NW 0.9mph /  1.4km/h 3mph /  4.8km/h 98% 0.01in /  0.2mm 0 W/m2
07:46 47.1 °F /  8.4 °C 46.4 °F /  8 °C 30.1in /  1018.3hPa SE 2.9mph /  4.7km/h 5mph /  8km/h 97% 0.01in /  0.2mm 0 W/m2
07:51 47.1 °F /  8.4 °C 46.4 °F /  8 °C 30.1in /  1018.6hPa NW 0.9mph /  1.4km/h 4mph /  6.4km/h 97% 0.01in /  0.2mm 0 W/m2
07:56 47.1 °F /  8.4 °C 46 °F /  7.8 °C 30.1in /  1018.6hPa West 4mph /  6.4km/h 7mph /  11.3km/h 96% 0.02in /  0.5mm 0 W/m2
08:01 47.1 °F /  8.4 °C 46 °F /  7.8 °C 30.1in /  1018.6hPa West 0.9mph /  1.4km/h 3mph /  4.8km/h 96% 0.02in /  0.5mm 0 W/m2
08:06 47.1 °F /  8.4 °C 46 °F /  7.8 °C 30.1in /  1018.6hPa WSW 0.9mph /  1.4km/h 2mph /  3.2km/h 96% 0.02in /  0.5mm 0 W/m2
08:11 47.1 °F /  8.4 °C 46 °F /  7.8 °C 30.1in /  1019.0hPa Calm   3mph /  4.8km/h 96% 0.02in /  0.5mm 0 W/m2
08:32 46.9 °F /  8.3 °C 45.9 °F /  7.7 °C 30.1in /  1019.3hPa SSE 0.9mph /  1.4km/h 2mph /  3.2km/h 96% 0.01in /  0.2mm 5 W/m2
08:37 46.8 °F /  8.2 °C 45.7 °F /  7.6 °C 30.1in /  1019.3hPa Calm   2mph /  3.2km/h 96% 0.02in /  0.5mm 0 W/m2
08:42 46.8 °F /  8.2 °C 45.7 °F /  7.6 °C 30.1in /  1019.6hPa Calm   3mph /  4.8km/h 96% 0.02in /  0.5mm 5 W/m2
08:47 46.8 °F /  8.2 °C 45.7 °F /  7.6 °C 30.1in /  1019.6hPa WSW 2mph /  3.2km/h 4mph /  6.4km/h 96% 0.02in /  0.5mm 9 W/m2
08:52 46.8 °F /  8.2 °C 45.7 °F /  7.6 °C 30.1in /  1019.6hPa Calm   1mph /  1.6km/h 96% 0.01in /  0.2mm 9 W/m2
08:57 46.6 °F /  8.1 °C 45.5 °F /  7.5 °C 30.1in /  1019.6hPa Calm   3mph /  4.8km/h 96% 0.01in /  0.2mm 12 W/m2
09:02 46.6 °F /  8.1 °C 45.5 °F /  7.5 °C 30.1in /  1019.6hPa Calm   1mph /  1.6km/h 96% 0.01in /  0.2mm 16 W/m2
09:07 46.6 °F /  8.1 °C 45.5 °F /  7.5 °C 30.1in /  1019.6hPa WSW 0.9mph /  1.4km/h 2mph /  3.2km/h 96% 0.01in /  0.2mm 19 W/m2
09:12 46.8 °F /  8.2 °C 45.7 °F /  7.6 °C 30.1in /  1019.6hPa Calm   3mph /  4.8km/h 96% 0.01in /  0.2mm 21 W/m2
09:17 46.8 °F /  8.2 °C 45.7 °F /  7.6 °C 30.1in /  1019.6hPa WNW 2mph /  3.2km/h 2mph /  3.2km/h 96% 0.01in /  0.2mm 26 W/m2
09:22 46.8 °F /  8.2 °C 45.7 °F /  7.6 °C 30.1in /  1020.0hPa Calm   1mph /  1.6km/h 96% 0.01in /  0.2mm 32 W/m2
09:27 46.8 °F /  8.2 °C 45.7 °F /  7.6 °C 30.1in /  1020.0hPa Calm   1mph /  1.6km/h 96% 0.01in /  0.2mm 26 W/m2
09:32 46.8 °F /  8.2 °C 45.7 °F /  7.6 °C 30.1in /  1020.0hPa Calm   3mph /  4.8km/h 96% 0.01in /  0.2mm 25 W/m2
09:50 46.9 °F /  8.3 °C 45.9 °F /  7.7 °C 30.1in /  1020.3hPa WNW 0.9mph /  1.4km/h 2mph /  3.2km/h 96% 0in /  0.0mm 32 W/m2
09:55 47.1 °F /  8.4 °C 46 °F /  7.8 °C 30.1in /  1020.3hPa Calm   2mph /  3.2km/h 96% 0in /  0.0mm 40 W/m2
10:00 47.1 °F /  8.4 °C 46 °F /  7.8 °C 30.1in /  1020.3hPa WNW 0.9mph /  1.4km/h 2mph /  3.2km/h 96% 0in /  0.0mm 62 W/m2
10:05 47.1 °F /  8.4 °C 46 °F /  7.8 °C 30.1in /  1020.3hPa NW 0.9mph /  1.4km/h 3mph /  4.8km/h 96% 0in /  0.0mm 76 W/m2
10:10 47.3 °F /  8.5 °C 46.2 °F /  7.9 °C 30.1in /  1020.3hPa Calm   2mph /  3.2km/h 96% 0in /  0.0mm 77 W/m2
10:15 47.5 °F /  8.6 °C 46 °F /  7.8 °C 30.1in /  1020.7hPa Calm   2mph /  3.2km/h 95% 0in /  0.0mm 76 W/m2
10:20 47.7 °F /  8.7 °C 46.2 °F /  7.9 °C 30.1in /  1020.7hPa Calm   1mph /  1.6km/h 95% 0in /  0.0mm 72 W/m2
10:25 47.7 °F /  8.7 °C 46.2 °F /  7.9 °C 30.1in /  1020.7hPa West 2mph /  3.2km/h 7mph /  11.3km/h 95% 0in /  0.0mm 100 W/m2
10:30 47.7 °F /  8.7 °C 46.2 °F /  7.9 °C 30.1in /  1020.7hPa NW 0.9mph /  1.4km/h   95% 0in /  0.0mm 97 W/m2
10:35 47.8 °F /  8.8 °C 46.4 °F /  8 °C 30.2in /  1021.0hPa WNW 0.9mph /  1.4km/h 7mph /  11.3km/h 95% 0in /  0.0mm 93 W/m2
10:40 48 °F /  8.9 °C 46.6 °F /  8.1 °C 30.2in /  1021.0hPa WNW 2mph /  3.2km/h 3mph /  4.8km/h 95% 0in /  0.0mm 83 W/m2
10:45 48 °F /  8.9 °C 46.6 °F /  8.1 °C 30.2in /  1021.0hPa WNW 2mph /  3.2km/h 8mph /  12.9km/h 95% 0in /  0.0mm 81 W/m2
10:50 48.2 °F /  9 °C 46.6 °F /  8.1 °C 30.2in /  1021.0hPa North 2mph /  3.2km/h 3mph /  4.8km/h 94% 0in /  0.0mm 105 W/m2
10:55 48.2 °F /  9 °C 46.6 °F /  8.1 °C 30.2in /  1021.0hPa Calm   8mph /  12.9km/h 94% 0in /  0.0mm 91 W/m2
11:00 48.4 °F /  9.1 °C 46.8 °F /  8.2 °C 30.2in /  1021.0hPa NW 4mph /  6.4km/h 4mph /  6.4km/h 94% 0in /  0.0mm 95 W/m2
11:05 48.4 °F /  9.1 °C 46.8 °F /  8.2 °C 30.2in /  1021.0hPa WNW 8.1mph /  13km/h 11mph /  17.7km/h 94% 0in /  0.0mm 113 W/m2
11:10 48.6 °F /  9.2 °C 46.6 °F /  8.1 °C 30.2in /  1021.0hPa SW 6mph /  9.7km/h 6mph /  9.7km/h 93% 0in /  0.0mm 86 W/m2
11:15 48.7 °F /  9.3 °C 46.8 °F /  8.2 °C 30.2in /  1021.3hPa North 2.9mph /  4.7km/h 11mph /  17.7km/h 93% 0in /  0.0mm 105 W/m2
11:20 48.7 °F /  9.3 °C 46.8 °F /  8.2 °C 30.2in /  1021.3hPa WNW 2mph /  3.2km/h 6mph /  9.7km/h 93% 0in /  0.0mm 162 W/m2
11:25 48.9 °F /  9.4 °C 46.9 °F /  8.3 °C 30.2in /  1021.3hPa WNW 0.9mph /  1.4km/h 4mph /  6.4km/h 93% 0in /  0.0mm 93 W/m2
11:30 49.1 °F /  9.5 °C 46.9 °F /  8.3 °C 30.2in /  1021.3hPa NW 2mph /  3.2km/h 6mph /  9.7km/h 92% 0in /  0.0mm 93 W/m2
11:35 49.1 °F /  9.5 °C 46.9 °F /  8.3 °C 30.2in /  1021.3hPa NNW 2.9mph /  4.7km/h 6mph /  9.7km/h 92% 0in /  0.0mm 53 W/m2
11:40 49.1 °F /  9.5 °C 46.9 °F /  8.3 °C 30.2in /  1021.3hPa NW 2mph /  3.2km/h 8mph /  12.9km/h 92% 0in /  0.0mm 60 W/m2
11:45 49.1 °F /  9.5 °C 46.9 °F /  8.3 °C 30.2in /  1021.3hPa NW 2mph /  3.2km/h 8mph /  12.9km/h 92% 0in /  0.0mm 105 W/m2
11:50 49.3 °F /  9.6 °C 47.1 °F /  8.4 °C 30.2in /  1021.3hPa Calm   3mph /  4.8km/h 92% 0in /  0.0mm 128 W/m2
11:55 49.5 °F /  9.7 °C 47.3 °F /  8.5 °C 30.2in /  1021.3hPa WNW 4mph /  6.4km/h 5mph /  8km/h 92% 0in /  0.0mm 135 W/m2
12:00 49.5 °F /  9.7 °C 47.3 °F /  8.5 °C 30.2in /  1021.3hPa WNW 2.9mph /  4.7km/h 5mph /  8km/h 92% 0in /  0.0mm 100 W/m2
12:05 49.6 °F /  9.8 °C 47.5 °F /  8.6 °C 30.2in /  1021.3hPa NW 4mph /  6.4km/h 5mph /  8km/h 92% 0in /  0.0mm 67 W/m2
12:10 49.6 °F /  9.8 °C 47.1 °F /  8.4 °C 30.2in /  1021.3hPa NW 0.9mph /  1.4km/h 3mph /  4.8km/h 91% 0in /  0.0mm 98 W/m2
12:15 49.6 °F /  9.8 °C 47.1 °F /  8.4 °C 30.2in /  1021.3hPa Calm   2mph /  3.2km/h 91% 0in /  0.0mm 113 W/m2
12:20 49.8 °F /  9.9 °C 47.3 °F /  8.5 °C 30.2in /  1021.3hPa NNW 2mph /  3.2km/h 4mph /  6.4km/h 91% 0in /  0.0mm 116 W/m2
12:25 49.8 °F /  9.9 °C 47.3 °F /  8.5 °C 30.2in /  1021.3hPa NW 2.9mph /  4.7km/h 4mph /  6.4km/h 91% 0in /  0.0mm 79 W/m2
12:30 50 °F /  10 °C 47.5 °F /  8.6 °C 30.2in /  1021.3hPa West 2.9mph /  4.7km/h 3mph /  4.8km/h 91% 0in /  0.0mm 62 W/m2
12:35 49.8 °F /  9.9 °C 46.9 °F /  8.3 °C 30.2in /  1021.3hPa WNW 0.9mph /  1.4km/h 11mph /  17.7km/h 90% 0in /  0.0mm 77 W/m2
12:40 49.8 °F /  9.9 °C 46.9 °F /  8.3 °C 30.2in /  1021.3hPa West 6mph /  9.7km/h 10mph /  16.1km/h 90% 0in /  0.0mm 63 W/m2
12:45 49.8 °F /  9.9 °C 46.9 °F /  8.3 °C 30.2in /  1021.3hPa West 2.9mph /  4.7km/h 6mph /  9.7km/h 90% 0in /  0.0mm 63 W/m2
12:50 49.8 °F /  9.9 °C 46.9 °F /  8.3 °C 30.2in /  1021.3hPa West 2mph /  3.2km/h 10mph /  16.1km/h 90% 0in /  0.0mm 86 W/m2
12:55 49.8 °F /  9.9 °C 46.9 °F /  8.3 °C 30.2in /  1021.3hPa Calm   5mph /  8km/h 90% 0in /  0.0mm 81 W/m2
13:00 49.8 °F /  9.9 °C 47.3 °F /  8.5 °C 30.2in /  1021.3hPa NW 0.9mph /  1.4km/h 7mph /  11.3km/h 91% 0in /  0.0mm 91 W/m2
13:05 49.8 °F /  9.9 °C 46.9 °F /  8.3 °C 30.2in /  1021.3hPa WNW 2.9mph /  4.7km/h 3mph /  4.8km/h 90% 0in /  0.0mm 100 W/m2
13:10 49.8 °F /  9.9 °C 46.9 °F /  8.3 °C 30.2in /  1021.3hPa West 4mph /  6.4km/h 7mph /  11.3km/h 90% 0in /  0.0mm 53 W/m2
13:15 49.8 °F /  9.9 °C 46.8 °F /  8.2 °C 30.2in /  1021.3hPa WSW 0.9mph /  1.4km/h 4mph /  6.4km/h 89% 0in /  0.0mm 30 W/m2
13:20 49.6 °F /  9.8 °C 46.6 °F /  8.1 °C 30.2in /  1021.3hPa WSW 6.9mph /  11.1km/h 7mph /  11.3km/h 89% 0in /  0.0mm 30 W/m2
13:25 49.6 °F /  9.8 °C 46.2 °F /  7.9 °C 30.2in /  1021.3hPa Calm   2mph /  3.2km/h 88% 0in /  0.0mm 26 W/m2
13:30 49.6 °F /  9.8 °C 46.6 °F /  8.1 °C 30.2in /  1021.3hPa Calm   2mph /  3.2km/h 89% 0in /  0.0mm 28 W/m2
13:35 49.5 °F /  9.7 °C 46 °F /  7.8 °C 30.2in /  1021.3hPa West 0.9mph /  1.4km/h 2mph /  3.2km/h 88% 0in /  0.0mm 33 W/m2
13:40 49.5 °F /  9.7 °C 46 °F /  7.8 °C 30.2in /  1021.3hPa SW 0.9mph /  1.4km/h 3mph /  4.8km/h 88% 0in /  0.0mm 46 W/m2
13:45 49.6 °F /  9.8 °C 46.2 °F /  7.9 °C 30.2in /  1021.3hPa Calm   3mph /  4.8km/h 88% 0in /  0.0mm 91 W/m2
13:50 49.8 °F /  9.9 °C 46.4 °F /  8 °C 30.2in /  1021.7hPa WNW 4mph /  6.4km/h 4mph /  6.4km/h 88% 0in /  0.0mm 65 W/m2
13:55 49.8 °F /  9.9 °C 46.4 °F /  8 °C 30.2in /  1021.7hPa West 0.9mph /  1.4km/h 3mph /  4.8km/h 88% 0in /  0.0mm 79 W/m2
14:01 50 °F /  10 °C 46.6 °F /  8.1 °C 30.2in /  1021.7hPa WNW 2.9mph /  4.7km/h 4mph /  6.4km/h 88% 0in /  0.0mm 76 W/m2
14:06 50 °F /  10 °C 46.6 °F /  8.1 °C 30.2in /  1021.7hPa ESE 0.9mph /  1.4km/h 4mph /  6.4km/h 88% 0in /  0.0mm 62 W/m2
14:11 50 °F /  10 °C 46.2 °F /  7.9 °C 30.2in /  1021.7hPa NE 0.9mph /  1.4km/h 3mph /  4.8km/h 87% 0in /  0.0mm 69 W/m2
14:16 50.2 °F /  10.1 °C 46.4 °F /  8 °C 30.2in /  1021.7hPa Calm   2mph /  3.2km/h 87% 0in /  0.0mm 58 W/m2
14:21 50.2 °F /  10.1 °C 46.4 °F /  8 °C 30.2in /  1021.7hPa North 2mph /  3.2km/h 2mph /  3.2km/h 87% 0in /  0.0mm 67 W/m2
14:26 50.2 °F /  10.1 °C 46.4 °F /  8 °C 30.2in /  1021.7hPa Calm   4mph /  6.4km/h 87% 0in /  0.0mm 63 W/m2
14:31 50.2 °F /  10.1 °C 46.4 °F /  8 °C 30.2in /  1021.7hPa North 0.9mph /  1.4km/h 6mph /  9.7km/h 87% 0in /  0.0mm 91 W/m2
14:36 50.2 °F /  10.1 °C 46.4 °F /  8 °C 30.2in /  1021.7hPa WNW 2.9mph /  4.7km/h 4mph /  6.4km/h 87% 0in /  0.0mm 83 W/m2
14:41 50.2 °F /  10.1 °C 46.2 °F /  7.9 °C 30.2in /  1021.7hPa Calm   5mph /  8km/h 86% 0in /  0.0mm 98 W/m2
14:46 50.4 °F /  10.2 °C 46.4 °F /  8 °C 30.2in /  1021.7hPa Calm   2mph /  3.2km/h 86% 0in /  0.0mm 62 W/m2
14:51 50.4 °F /  10.2 °C 46.4 °F /  8 °C 30.2in /  1021.7hPa NW 0.9mph /  1.4km/h 6mph /  9.7km/h 86% 0in /  0.0mm 54 W/m2
14:56 50.4 °F /  10.2 °C 46.6 °F /  8.1 °C 30.2in /  1021.7hPa Calm   2mph /  3.2km/h 87% 0in /  0.0mm 60 W/m2
15:01 50.2 °F /  10.1 °C 46.4 °F /  8 °C 30.2in /  1021.7hPa NW 0.9mph /  1.4km/h 6mph /  9.7km/h 87% 0in /  0.0mm 47 W/m2
15:06 50.2 °F /  10.1 °C 46.2 °F /  7.9 °C 30.2in /  1021.7hPa East 0.9mph /  1.4km/h 2mph /  3.2km/h 86% 0in /  0.0mm 40 W/m2
15:11 50.2 °F /  10.1 °C 46.2 °F /  7.9 °C 30.2in /  1021.7hPa South 0.9mph /  1.4km/h 2mph /  3.2km/h 86% 0in /  0.0mm 51 W/m2
15:16 50.2 °F /  10.1 °C 46.2 °F /  7.9 °C 30.2in /  1021.7hPa NE 2mph /  3.2km/h 3mph /  4.8km/h 86% 0in /  0.0mm 51 W/m2
15:21 50.2 °F /  10.1 °C 46.4 °F /  8 °C 30.2in /  1022.0hPa West 0.9mph /  1.4km/h 3mph /  4.8km/h 87% 0in /  0.0mm 35 W/m2
15:26 50.2 °F /  10.1 °C 46.4 °F /  8 °C 30.2in /  1022.0hPa Calm     87% 0in /  0.0mm 35 W/m2
15:31 50 °F /  10 °C 46.6 °F /  8.1 °C 30.2in /  1022.0hPa Calm   3mph /  4.8km/h 88% 0in /  0.0mm 40 W/m2
15:49 49.8 °F /  9.9 °C 46.4 °F /  8 °C 30.2in /  1022.0hPa Calm     88% 0in /  0.0mm 12 W/m2
15:54 49.8 °F /  9.9 °C 46.4 °F /  8 °C 30.2in /  1022.4hPa Calm   1mph /  1.6km/h 88% 0in /  0.0mm 14 W/m2
15:59 49.8 °F /  9.9 °C 46.8 °F /  8.2 °C 30.2in /  1022.4hPa Calm     89% 0in /  0.0mm 11 W/m2
16:04 49.8 °F /  9.9 °C 46.8 °F /  8.2 °C 30.2in /  1022.4hPa Calm   1mph /  1.6km/h 89% 0in /  0.0mm 11 W/m2
16:09 49.5 °F /  9.7 °C 46.4 °F /  8 °C 30.2in /  1022.4hPa South 0.9mph /  1.4km/h 2mph /  3.2km/h 89% 0in /  0.0mm 9 W/m2
16:15 49.5 °F /  9.7 °C 46.4 °F /  8 °C 30.2in /  1022.4hPa Calm   2mph /  3.2km/h 89% 0in /  0.0mm 7 W/m2
16:20 49.5 °F /  9.7 °C 46.4 °F /  8 °C 30.2in /  1022.4hPa West 4mph /  6.4km/h 4mph /  6.4km/h 89% 0in /  0.0mm 11 W/m2
16:25 49.5 °F /  9.7 °C 46.4 °F /  8 °C 30.2in /  1022.4hPa West 0.9mph /  1.4km/h 6mph /  9.7km/h 89% 0in /  0.0mm 9 W/m2
16:30 49.6 °F /  9.8 °C 46.2 °F /  7.9 °C 30.2in /  1022.4hPa Calm   2mph /  3.2km/h 88% 0in /  0.0mm 5 W/m2
16:35 49.5 °F /  9.7 °C 46.4 °F /  8 °C 30.2in /  1022.4hPa Calm   3mph /  4.8km/h 89% 0in /  0.0mm 0 W/m2
16:40 49.5 °F /  9.7 °C 46.4 °F /  8 °C 30.2in /  1022.7hPa Calm     89% 0in /  0.0mm 0 W/m2
16:45 49.3 °F /  9.6 °C 46.2 °F /  7.9 °C 30.2in /  1022.7hPa Calm     89% 0in /  0.0mm 0 W/m2
16:50 49.1 °F /  9.5 °C 46 °F /  7.8 °C 30.2in /  1022.7hPa SSE 0.9mph /  1.4km/h 2mph /  3.2km/h 89% 0in /  0.0mm 0 W/m2
16:55 48.9 °F /  9.4 °C 45.9 °F /  7.7 °C 30.2in /  1022.7hPa Calm   1mph /  1.6km/h 89% 0in /  0.0mm 0 W/m2
17:00 48.7 °F /  9.3 °C 45.9 °F /  7.7 °C 30.2in /  1022.7hPa Calm   2mph /  3.2km/h 90% 0in /  0.0mm 0 W/m2
17:05 48.7 °F /  9.3 °C 45.9 °F /  7.7 °C 30.2in /  1022.7hPa Calm   1mph /  1.6km/h 90% 0in /  0.0mm 0 W/m2
17:10 48.4 °F /  9.1 °C 45.5 °F /  7.5 °C 30.2in /  1022.7hPa SSE 0.9mph /  1.4km/h 1mph /  1.6km/h 90% 0in /  0.0mm 0 W/m2
17:15 48.2 °F /  9 °C 45.3 °F /  7.4 °C 30.2in /  1022.7hPa Calm     90% 0in /  0.0mm 0 W/m2
17:36 46.8 °F /  8.2 °C 44.2 °F /  6.8 °C 30.2in /  1023.0hPa SSE 0.9mph /  1.4km/h 2mph /  3.2km/h 91% 0in /  0.0mm 0 W/m2
17:41 46.2 °F /  7.9 °C 44.1 °F /  6.7 °C 30.2in /  1023.0hPa SSE 0.9mph /  1.4km/h 1mph /  1.6km/h 92% 0in /  0.0mm 0 W/m2
17:46 46 °F /  7.8 °C 43.9 °F /  6.6 °C 30.2in /  1023.0hPa Calm     92% 0in /  0.0mm 0 W/m2
17:51 45.7 °F /  7.6 °C 43.5 °F /  6.4 °C 30.2in /  1023.0hPa Calm     92% 0in /  0.0mm 0 W/m2
17:56 45.5 °F /  7.5 °C 43.5 °F /  6.4 °C 30.2in /  1023.4hPa Calm     93% 0in /  0.0mm 0 W/m2
18:16 45.5 °F /  7.5 °C 44.2 °F /  6.8 °C 30.2in /  1023.4hPa Calm   2mph /  3.2km/h 95% 0in /  0.0mm 0 W/m2
18:21 45.7 °F /  7.6 °C 44.4 °F /  6.9 °C 30.2in /  1023.0hPa East 2mph /  3.2km/h 3mph /  4.8km/h 95% 0in /  0.0mm 0 W/m2
18:26 45.9 °F /  7.7 °C 44.4 °F /  6.9 °C 30.2in /  1023.0hPa East 0.9mph /  1.4km/h 3mph /  4.8km/h 95% 0in /  0.0mm 0 W/m2
18:32 46.2 °F /  7.9 °C 44.6 °F /  7 °C 30.2in /  1023.4hPa East 0.9mph /  1.4km/h 1mph /  1.6km/h 94% 0in /  0.0mm 0 W/m2
18:37 46.2 °F /  7.9 °C 44.6 °F /  7 °C 30.2in /  1023.4hPa Calm   2mph /  3.2km/h 94% 0in /  0.0mm 0 W/m2
18:42 46.2 °F /  7.9 °C 44.6 °F /  7 °C 30.2in /  1023.4hPa Calm     94% 0in /  0.0mm 0 W/m2
18:47 46.2 °F /  7.9 °C 44.6 °F /  7 °C 30.2in /  1023.4hPa Calm     94% 0in /  0.0mm 0 W/m2
18:52 46 °F /  7.8 °C 44.4 °F /  6.9 °C 30.2in /  1023.4hPa Calm     94% 0in /  0.0mm 0 W/m2
18:57 46 °F /  7.8 °C 44.4 °F /  6.9 °C 30.2in /  1023.4hPa Calm     94% 0in /  0.0mm 0 W/m2
19:02 46 °F /  7.8 °C 44.4 °F /  6.9 °C 30.2in /  1023.4hPa Calm   1mph /  1.6km/h 94% 0in /  0.0mm 0 W/m2
19:07 46 °F /  7.8 °C 44.4 °F /  6.9 °C 30.2in /  1023.4hPa Calm   2mph /  3.2km/h 94% 0in /  0.0mm 0 W/m2
19:12 46 °F /  7.8 °C 44.6 °F /  7 °C 30.2in /  1023.4hPa Calm     95% 0in /  0.0mm 0 W/m2
19:17 46 °F /  7.8 °C 44.6 °F /  7 °C 30.2in /  1023.4hPa Calm   2mph /  3.2km/h 95% 0in /  0.0mm 0 W/m2
19:22 46 °F /  7.8 °C 44.6 °F /  7 °C 30.2in /  1023.4hPa Calm     95% 0in /  0.0mm 0 W/m2
19:27 45.9 °F /  7.7 °C 44.4 °F /  6.9 °C 30.2in /  1023.4hPa Calm     95% 0in /  0.0mm 0 W/m2
19:32 45.9 °F /  7.7 °C 44.4 °F /  6.9 °C 30.2in /  1023.4hPa Calm     95% 0in /  0.0mm 0 W/m2
19:37 45.9 °F /  7.7 °C 44.4 °F /  6.9 °C 30.2in /  1023.7hPa Calm     95% 0in /  0.0mm 0 W/m2
19:42 45.9 °F /  7.7 °C 44.4 °F /  6.9 °C 30.2in /  1023.4hPa Calm     95% 0in /  0.0mm 0 W/m2
19:47 45.9 °F /  7.7 °C 44.4 °F /  6.9 °C 30.2in /  1023.4hPa Calm     95% 0in /  0.0mm 0 W/m2
19:52 45.9 °F /  7.7 °C 44.4 °F /  6.9 °C 30.2in /  1023.4hPa Calm     95% 0in /  0.0mm 0 W/m2
19:57 45.9 °F /  7.7 °C 44.4 °F /  6.9 °C 30.2in /  1023.4hPa Calm     95% 0in /  0.0mm 0 W/m2
20:02 46 °F /  7.8 °C 44.6 °F /  7 °C 30.2in /  1023.4hPa Calm     95% 0in /  0.0mm 0 W/m2
20:07 46 °F /  7.8 °C 44.6 °F /  7 °C 30.2in /  1023.4hPa Calm     95% 0in /  0.0mm 0 W/m2
20:12 46 °F /  7.8 °C 44.6 °F /  7 °C 30.2in /  1023.7hPa Calm     95% 0in /  0.0mm 0 W/m2
20:17 46 °F /  7.8 °C 44.6 °F /  7 °C 30.2in /  1023.4hPa Calm     95% 0in /  0.0mm 0 W/m2
20:22 46 °F /  7.8 °C 44.6 °F /  7 °C 30.2in /  1023.4hPa Calm     95% 0in /  0.0mm 0 W/m2
20:27 45.9 °F /  7.7 °C 44.4 °F /  6.9 °C 30.2in /  1023.7hPa Calm     95% 0in /  0.0mm 0 W/m2
20:32 45.9 °F /  7.7 °C 44.4 °F /  6.9 °C 30.2in /  1023.7hPa Calm     95% 0in /  0.0mm 0 W/m2
20:37 45.9 °F /  7.7 °C 44.4 °F /  6.9 °C 30.2in /  1023.7hPa Calm     95% 0in /  0.0mm 0 W/m2
20:42 45.9 °F /  7.7 °C 44.4 °F /  6.9 °C 30.2in /  1023.7hPa Calm     95% 0in /  0.0mm 0 W/m2
20:47 45.9 °F /  7.7 °C 44.4 °F /  6.9 °C 30.2in /  1023.7hPa ENE 0.9mph /  1.4km/h 2mph /  3.2km/h 95% 0in /  0.0mm 0 W/m2
20:52 45.7 °F /  7.6 °C 44.4 °F /  6.9 °C 30.2in /  1023.7hPa ENE 0.9mph /  1.4km/h 2mph /  3.2km/h 95% 0in /  0.0mm 0 W/m2
21:11 46 °F /  7.8 °C 44.6 °F /  7 °C 30.2in /  1023.7hPa Calm   2mph /  3.2km/h 95% 0in /  0.0mm 0 W/m2
21:16 46.2 °F /  7.9 °C 44.8 °F /  7.1 °C 30.2in /  1023.4hPa NNE 0.9mph /  1.4km/h 3mph /  4.8km/h 95% 0in /  0.0mm 0 W/m2
21:21 46.6 °F /  8.1 °C 45.1 °F /  7.3 °C 30.2in /  1023.4hPa NNE 0.9mph /  1.4km/h 1mph /  1.6km/h 95% 0in /  0.0mm 0 W/m2
21:42 46.8 °F /  8.2 °C 44.8 °F /  7.1 °C 30.2in /  1023.4hPa Calm   1mph /  1.6km/h 93% 0in /  0.0mm 0 W/m2
21:47 46.9 °F /  8.3 °C 45 °F /  7.2 °C 30.2in /  1023.4hPa NW 2mph /  3.2km/h 2mph /  3.2km/h 93% 0in /  0.0mm 0 W/m2
21:52 46.9 °F /  8.3 °C 45 °F /  7.2 °C 30.2in /  1023.7hPa WNW 2mph /  3.2km/h 7mph /  11.3km/h 93% 0in /  0.0mm 0 W/m2
21:57 46.9 °F /  8.3 °C 44.8 °F /  7.1 °C 30.2in /  1023.7hPa ENE 2mph /  3.2km/h 3mph /  4.8km/h 92% 0in /  0.0mm 0 W/m2
22:02 47.1 °F /  8.4 °C 45 °F /  7.2 °C 30.2in /  1023.7hPa Calm   7mph /  11.3km/h 92% 0in /  0.0mm 0 W/m2
22:07 47.1 °F /  8.4 °C 45 °F /  7.2 °C 30.2in /  1023.7hPa Calm   1mph /  1.6km/h 92% 0in /  0.0mm 0 W/m2
22:12 47.1 °F /  8.4 °C 45 °F /  7.2 °C 30.2in /  1023.7hPa Calm     92% 0in /  0.0mm 0 W/m2
22:17 46.9 °F /  8.3 °C 44.8 °F /  7.1 °C 30.2in /  1023.7hPa Calm     92% 0in /  0.0mm 0 W/m2
22:22 46.8 °F /  8.2 °C 44.2 °F /  6.8 °C 30.2in /  1023.7hPa Calm     91% 0in /  0.0mm 0 W/m2
22:27 46.2 °F /  7.9 °C 43.7 °F /  6.5 °C 30.2in /  1023.7hPa Calm     91% 0in /  0.0mm 0 W/m2
22:32 45.9 °F /  7.7 °C 43.7 °F /  6.5 °C 30.2in /  1023.7hPa Calm     92% 0in /  0.0mm 0 W/m2
22:37 45.7 °F /  7.6 °C 43.5 °F /  6.4 °C 30.2in /  1023.7hPa Calm     92% 0in /  0.0mm 0 W/m2
22:42 45.3 °F /  7.4 °C 43.3 °F /  6.3 °C 30.2in /  1023.7hPa Calm     93% 0in /  0.0mm 0 W/m2
22:47 45.1 °F /  7.3 °C 43.2 °F /  6.2 °C 30.2in /  1023.7hPa Calm     93% 0in /  0.0mm 0 W/m2
22:52 45 °F /  7.2 °C 43 °F /  6.1 °C 30.2in /  1023.7hPa Calm     93% 0in /  0.0mm 0 W/m2
22:57 44.8 °F /  7.1 °C 43.2 °F /  6.2 °C 30.2in /  1023.7hPa Calm     94% 0in /  0.0mm 0 W/m2
23:02 44.4 °F /  6.9 °C 42.8 °F /  6 °C 30.2in /  1023.7hPa Calm     94% 0in /  0.0mm 0 W/m2
23:07 44.4 °F /  6.9 °C 42.8 °F /  6 °C 30.2in /  1024.0hPa Calm   1mph /  1.6km/h 94% 0in /  0.0mm 0 W/m2
23:12 44.4 °F /  6.9 °C 43.2 °F /  6.2 °C 30.2in /  1024.0hPa NW 0.9mph /  1.4km/h 1mph /  1.6km/h 95% 0in /  0.0mm 0 W/m2
23:17 44.8 °F /  7.1 °C 43.5 °F /  6.4 °C 30.2in /  1024.0hPa North 0.9mph /  1.4km/h 3mph /  4.8km/h 95% 0in /  0.0mm 0 W/m2
23:22 45.1 °F /  7.3 °C 43.9 °F /  6.6 °C 30.2in /  1024.0hPa Calm   2mph /  3.2km/h 95% 0in /  0.0mm 0 W/m2
23:27 45.5 °F /  7.5 °C 44.2 °F /  6.8 °C 30.2in /  1024.0hPa NW 0.9mph /  1.4km/h 3mph /  4.8km/h 95% 0in /  0.0mm 0 W/m2
23:32 45.9 °F /  7.7 °C 44.4 °F /  6.9 °C 30.2in /  1024.0hPa Calm   1mph /  1.6km/h 95% 0in /  0.0mm 0 W/m2
23:37 46 °F /  7.8 °C 44.6 °F /  7 °C 30.2in /  1024.0hPa West 0.9mph /  1.4km/h 3mph /  4.8km/h 95% 0in /  0.0mm 0 W/m2
23:42 46.2 °F /  7.9 °C 44.8 °F /  7.1 °C 30.2in /  1023.7hPa Calm   3mph /  4.8km/h 95% 0in /  0.0mm 0 W/m2
23:47 46.2 °F /  7.9 °C 44.8 °F /  7.1 °C 30.2in /  1023.7hPa Calm   1mph /  1.6km/h 95% 0in /  0.0mm 0 W/m2
23:52 46.4 °F /  8 °C 45 °F /  7.2 °C 30.2in /  1023.7hPa Calm   1mph /  1.6km/h 95% 0in /  0.0mm 0 W/m2
23:57 46.6 °F /  8.1 °C 45 °F /  7.2 °C 30.2in /  1023.7hPa Calm   1mph /  1.6km/h 94% 0in /  0.0mm 0 W/m2
Juneau County Weather
Compliments of Weather Underground - 4 mb